createdAt,value
2018-01-18T00:00:12.040Z,3.90
2018-01-18T00:02:39.908Z,3.90
2018-01-18T00:05:07.775Z,4.00
2018-01-18T00:07:35.642Z,4.00
2018-01-18T00:10:03.509Z,4.00
2018-01-18T00:12:31.377Z,4.00
2018-01-18T00:14:59.244Z,3.90
2018-01-18T00:17:27.111Z,3.90
2018-01-18T00:19:54.978Z,4.00
2018-01-18T00:22:22.846Z,3.90
2018-01-18T00:24:50.716Z,3.90
2018-01-18T00:27:18.509Z,4.00
2018-01-18T00:29:46.345Z,3.90
2018-01-18T00:32:14.213Z,3.90
2018-01-18T00:34:42.080Z,3.90
2018-01-18T00:37:09.947Z,3.90
2018-01-18T00:39:37.819Z,3.90
2018-01-18T00:42:05.681Z,4.00
2018-01-18T00:44:33.557Z,3.90
2018-01-18T00:47:01.417Z,4.00
2018-01-18T00:49:29.283Z,4.00
2018-01-18T00:51:57.151Z,4.10
2018-01-18T00:54:25.022Z,4.10
2018-01-18T00:56:52.885Z,4.10
2018-01-18T00:59:20.754Z,4.20
2018-01-18T01:01:48.620Z,4.20
2018-01-18T01:04:16.488Z,4.20
2018-01-18T01:06:44.356Z,4.20
2018-01-18T01:09:12.226Z,4.20
2018-01-18T01:11:40.094Z,4.10
2018-01-18T01:14:07.959Z,4.20
2018-01-18T01:16:35.825Z,4.20
2018-01-18T01:19:03.794Z,4.20
2018-01-18T01:21:31.595Z,4.20
2018-01-18T01:24:00.246Z,4.20
2018-01-18T01:26:28.117Z,4.20
2018-01-18T01:28:55.981Z,4.20
2018-01-18T01:31:23.847Z,4.20
2018-01-18T01:33:51.714Z,4.20
2018-01-18T01:36:19.581Z,4.20
2018-01-18T01:38:47.448Z,4.20
2018-01-18T01:41:15.316Z,4.10
2018-01-18T01:43:43.185Z,4.10
2018-01-18T01:46:11.050Z,4.20
2018-01-18T01:48:38.930Z,4.20
2018-01-18T01:51:06.785Z,4.10
2018-01-18T01:53:34.653Z,4.10
2018-01-18T01:56:02.521Z,4.00
2018-01-18T01:58:30.388Z,4.10
2018-01-18T02:00:58.258Z,4.10
2018-01-18T02:03:26.122Z,4.10
2018-01-18T02:05:53.990Z,4.10
2018-01-18T02:08:21.857Z,4.10
2018-01-18T02:10:49.726Z,4.00
2018-01-18T02:13:17.591Z,4.00
2018-01-18T02:15:45.357Z,4.10
2018-01-18T02:18:13.226Z,4.10
2018-01-18T02:20:41.097Z,4.10
2018-01-18T02:23:08.958Z,4.10
2018-01-18T02:25:36.826Z,4.10
2018-01-18T02:28:04.694Z,4.00
2018-01-18T02:30:32.561Z,4.00
2018-01-18T02:33:00.428Z,4.00
2018-01-18T02:35:28.298Z,4.10
2018-01-18T02:37:56.163Z,4.10
2018-01-18T02:40:24.031Z,4.10
2018-01-18T02:42:52.206Z,4.10
2018-01-18T02:45:20.073Z,4.10
2018-01-18T02:47:47.940Z,4.10
2018-01-18T02:50:15.807Z,4.10
2018-01-18T02:52:43.674Z,4.10
2018-01-18T02:55:12.463Z,4.20
2018-01-18T02:57:40.329Z,4.20
2018-01-18T03:00:08.130Z,4.20
2018-01-18T03:02:36.781Z,4.30
2018-01-18T03:05:04.651Z,4.30
2018-01-18T03:07:32.414Z,4.30
2018-01-18T03:10:00.281Z,4.30
2018-01-18T03:12:28.148Z,4.30
2018-01-18T03:14:56.015Z,4.30
2018-01-18T03:17:23.887Z,4.40
2018-01-18T03:19:51.749Z,4.40
2018-01-18T03:22:19.551Z,4.40
2018-01-18T03:24:48.201Z,4.40
2018-01-18T03:27:16.068Z,4.40
2018-01-18T03:29:44.141Z,4.50
2018-01-18T03:32:12.014Z,4.50
2018-01-18T03:34:39.876Z,4.50
2018-01-18T03:37:07.737Z,4.50
2018-01-18T03:39:35.610Z,4.50
2018-01-18T03:42:03.580Z,4.60
2018-01-18T03:44:31.450Z,4.60
2018-01-18T03:46:59.518Z,4.60
2018-01-18T03:49:27.498Z,4.60
2018-01-18T03:51:55.356Z,4.70
2018-01-18T03:54:24.045Z,4.70
2018-01-18T03:56:51.914Z,4.60
2018-01-18T03:59:19.813Z,4.60
2018-01-18T04:01:48.464Z,4.70
2018-01-18T04:04:16.331Z,4.70
2018-01-18T04:06:44.198Z,4.70
2018-01-18T04:09:12.066Z,4.70
2018-01-18T04:11:39.939Z,4.70
2018-01-18T04:14:07.698Z,4.60
2018-01-18T04:16:35.565Z,4.70
2018-01-18T04:19:03.741Z,4.70
2018-01-18T04:21:31.608Z,4.70
2018-01-18T04:23:59.475Z,4.70
2018-01-18T04:26:27.341Z,4.60
2018-01-18T04:28:55.209Z,4.70
2018-01-18T04:31:23.076Z,4.60
2018-01-18T04:33:50.943Z,4.60
2018-01-18T04:36:18.736Z,4.60
2018-01-18T04:38:46.575Z,4.70
2018-01-18T04:41:14.447Z,4.60
2018-01-18T04:43:42.311Z,4.50
2018-01-18T04:46:10.178Z,4.60
2018-01-18T04:48:38.045Z,4.60
2018-01-18T04:51:05.912Z,4.50
2018-01-18T04:53:33.783Z,4.50
2018-01-18T04:56:01.647Z,4.50
2018-01-18T04:58:29.514Z,4.50
2018-01-18T05:00:57.382Z,4.60
2018-01-18T05:03:25.254Z,4.50
2018-01-18T05:05:53.117Z,4.50
2018-01-18T05:08:20.913Z,4.50
2018-01-18T05:10:48.748Z,4.50
2018-01-18T05:13:16.619Z,4.50
2018-01-18T05:15:46.531Z,4.50
2018-01-18T05:18:14.842Z,4.50
2018-01-18T05:20:45.114Z,4.50
2018-01-18T05:23:15.105Z,4.60
2018-01-18T05:25:46.080Z,4.50
2018-01-18T05:28:16.272Z,4.50
2018-01-18T05:30:46.141Z,4.60
2018-01-18T05:33:14.811Z,4.60
2018-01-18T05:35:42.680Z,4.60
2018-01-18T05:38:10.547Z,4.50
2018-01-18T05:40:38.414Z,4.50
2018-01-18T05:43:06.281Z,4.50
2018-01-18T05:45:33.999Z,4.50
2018-01-18T05:48:01.810Z,4.50
2018-01-18T05:50:29.678Z,4.50
2018-01-18T05:52:57.545Z,4.50
2018-01-18T05:55:25.413Z,4.50
2018-01-18T05:57:53.281Z,4.50
2018-01-18T06:00:21.147Z,4.50
2018-01-18T06:02:49.016Z,4.50
2018-01-18T06:05:16.882Z,4.50
2018-01-18T06:07:44.749Z,4.40
2018-01-18T06:10:12.616Z,4.40
2018-01-18T06:12:40.484Z,4.40
2018-01-18T06:15:08.351Z,4.40
2018-01-18T06:17:36.218Z,4.40
2018-01-18T06:20:04.086Z,4.40
2018-01-18T06:22:31.953Z,4.40
2018-01-18T06:24:59.821Z,4.40
2018-01-18T06:27:27.688Z,4.40
2018-01-18T06:29:55.555Z,4.50
2018-01-18T06:32:23.422Z,4.50
2018-01-18T06:34:51.290Z,4.50
2018-01-18T06:37:19.158Z,4.50
2018-01-18T06:39:47.025Z,4.50
2018-01-18T06:42:14.892Z,4.50
2018-01-18T06:44:42.759Z,4.50
2018-01-18T06:47:10.625Z,4.40
2018-01-18T06:49:38.494Z,4.40
2018-01-18T06:52:06.360Z,4.40
2018-01-18T06:54:34.228Z,4.40
2018-01-18T06:57:02.097Z,4.50
2018-01-18T06:59:29.963Z,4.50
2018-01-18T07:01:57.830Z,4.50
2018-01-18T07:04:25.697Z,4.60
2018-01-18T07:06:53.566Z,4.60
2018-01-18T07:09:21.432Z,4.70
2018-01-18T07:11:49.299Z,4.80
2018-01-18T07:14:17.169Z,4.90
2018-01-18T07:16:45.036Z,5.00
2018-01-18T07:19:12.901Z,5.00
2018-01-18T07:21:40.768Z,5.10
2018-01-18T07:24:08.637Z,5.10
2018-01-18T07:26:36.503Z,5.10
2018-01-18T07:29:04.372Z,5.10
2018-01-18T07:31:32.238Z,5.10
2018-01-18T07:34:00.105Z,5.10
2018-01-18T07:36:27.972Z,5.10
2018-01-18T07:38:55.703Z,5.10
2018-01-18T07:41:23.446Z,5.10
2018-01-18T07:43:52.087Z,5.20
2018-01-18T07:46:19.955Z,5.20
2018-01-18T07:48:47.820Z,5.20
2018-01-18T07:51:15.688Z,5.20
2018-01-18T07:53:43.556Z,5.30
2018-01-18T07:56:11.423Z,5.30
2018-01-18T07:58:39.289Z,5.30
2018-01-18T08:01:07.088Z,5.30
2018-01-18T08:03:40.697Z,5.40
2018-01-18T08:06:09.343Z,5.50
2018-01-18T08:08:37.210Z,5.50
2018-01-18T08:11:05.081Z,5.50
2018-01-18T08:13:32.945Z,5.50
2018-01-18T08:16:00.812Z,5.60
2018-01-18T08:18:28.679Z,5.60
2018-01-18T08:20:56.547Z,5.60
2018-01-18T08:23:24.414Z,5.70
2018-01-18T08:25:52.282Z,5.80
2018-01-18T08:28:20.148Z,5.80
2018-01-18T08:30:48.018Z,5.90
2018-01-18T08:33:15.887Z,5.90
2018-01-18T08:35:43.751Z,6.00
2018-01-18T08:38:11.619Z,6.00
2018-01-18T08:40:39.485Z,6.10
2018-01-18T08:43:07.352Z,6.20
2018-01-18T08:45:35.222Z,6.20
2018-01-18T08:48:03.088Z,6.30
2018-01-18T08:50:30.954Z,6.30
2018-01-18T08:52:58.825Z,6.30
2018-01-18T08:55:26.792Z,6.40
2018-01-18T08:57:54.659Z,6.40
2018-01-18T09:00:22.526Z,6.50
2018-01-18T09:02:50.395Z,6.50
2018-01-18T09:05:18.266Z,6.60
2018-01-18T09:07:46.128Z,6.60
2018-01-18T09:10:13.996Z,6.70
2018-01-18T09:12:41.863Z,6.80
2018-01-18T09:15:09.730Z,6.90
2018-01-18T09:17:37.597Z,6.90
2018-01-18T09:20:05.464Z,7.10
2018-01-18T09:22:33.335Z,7.10
2018-01-18T09:25:01.201Z,7.20
2018-01-18T09:27:29.067Z,7.30
2018-01-18T09:29:56.934Z,7.50
2018-01-18T09:32:24.801Z,7.60
2018-01-18T09:34:52.668Z,7.70
2018-01-18T09:37:20.536Z,7.80
2018-01-18T09:39:48.403Z,7.90
2018-01-18T09:42:16.276Z,7.90
2018-01-18T09:44:44.139Z,8.00
2018-01-18T09:47:12.007Z,8.20
2018-01-18T09:49:39.872Z,8.40
2018-01-18T09:52:07.740Z,8.50
2018-01-18T09:54:35.607Z,8.90
2018-01-18T09:57:03.474Z,9.00
2018-01-18T09:59:31.341Z,9.20
2018-01-18T10:01:59.208Z,9.30
2018-01-18T10:04:27.076Z,9.60
2018-01-18T10:06:54.944Z,10.40
2018-01-18T10:09:22.664Z,11.20
2018-01-18T10:11:50.476Z,13.10
2018-01-18T10:14:18.340Z,14.50
2018-01-18T10:16:46.208Z,15.60
2018-01-18T10:19:14.075Z,16.00
2018-01-18T10:21:41.942Z,16.40
2018-01-18T10:24:10.630Z,17.00
2018-01-18T10:26:38.349Z,17.00
2018-01-18T10:29:06.158Z,16.80
2018-01-18T10:31:33.889Z,16.60
2018-01-18T10:34:01.625Z,15.80
2018-01-18T10:36:30.106Z,13.40
2018-01-18T10:38:58.643Z,12.40
2018-01-18T10:41:26.518Z,12.40
2018-01-18T10:43:54.387Z,11.90
2018-01-18T10:46:22.186Z,11.50
2018-01-18T10:48:50.678Z,11.00
2018-01-18T10:51:19.321Z,11.00
2018-01-18T10:53:47.188Z,11.00
2018-01-18T10:56:15.056Z,11.20
2018-01-18T10:58:42.921Z,12.40
2018-01-18T11:01:10.789Z,14.20
2018-01-18T11:03:38.656Z,14.20
2018-01-18T11:06:06.523Z,13.60
2018-01-18T11:08:34.391Z,14.00
2018-01-18T11:11:02.259Z,15.60
2018-01-18T11:13:30.126Z,16.50
2018-01-18T11:15:57.992Z,16.50
2018-01-18T11:18:25.758Z,15.30
2018-01-18T11:20:53.625Z,14.20
2018-01-18T11:23:21.492Z,13.40
2018-01-18T11:25:49.359Z,12.90
2018-01-18T11:28:17.229Z,12.40
2018-01-18T11:30:45.094Z,12.00
2018-01-18T11:33:12.964Z,11.50
2018-01-18T11:35:40.828Z,11.10
2018-01-18T11:38:08.696Z,10.80
2018-01-18T11:40:36.564Z,10.50
2018-01-18T11:43:04.430Z,10.20
2018-01-18T11:45:32.298Z,10.10
2018-01-18T11:48:00.166Z,10.30
2018-01-18T11:50:28.033Z,10.50
2018-01-18T11:52:55.899Z,10.50
2018-01-18T11:55:23.767Z,11.00
2018-01-18T11:57:51.635Z,11.50
2018-01-18T12:00:19.503Z,11.30
2018-01-18T12:02:47.370Z,11.30
2018-01-18T12:05:15.237Z,12.70
2018-01-18T12:07:43.104Z,14.40
2018-01-18T12:10:10.971Z,15.80
2018-01-18T12:12:38.838Z,17.00
2018-01-18T12:15:06.706Z,17.70
2018-01-18T12:17:34.573Z,18.10
2018-01-18T12:20:02.441Z,18.60
2018-01-18T12:22:30.307Z,19.40
2018-01-18T12:24:58.178Z,19.60
2018-01-18T12:27:25.942Z,19.60
2018-01-18T12:29:53.807Z,19.30
2018-01-18T12:32:21.674Z,19.20
2018-01-18T12:34:49.541Z,18.30
2018-01-18T12:37:17.266Z,17.60
2018-01-18T12:39:45.071Z,17.50
2018-01-18T12:42:12.939Z,17.00
2018-01-18T12:44:40.809Z,16.40
2018-01-18T12:47:08.673Z,16.80
2018-01-18T12:49:36.644Z,17.50
2018-01-18T12:52:04.517Z,18.30
2018-01-18T12:54:32.377Z,19.30
2018-01-18T12:57:00.257Z,20.20
2018-01-18T12:59:28.114Z,20.20
2018-01-18T13:01:55.980Z,20.10
2018-01-18T13:04:23.846Z,20.30
2018-01-18T13:06:51.565Z,20.50
2018-01-18T13:09:19.281Z,20.40
2018-01-18T13:11:47.142Z,20.30
2018-01-18T13:14:15.009Z,20.20
2018-01-18T13:16:42.877Z,20.20
2018-01-18T13:19:10.744Z,20.30
2018-01-18T13:21:38.611Z,20.80
2018-01-18T13:24:06.478Z,21.10
2018-01-18T13:26:34.346Z,20.60
2018-01-18T13:29:02.213Z,20.60
2018-01-18T13:31:30.080Z,20.90
2018-01-18T13:33:57.948Z,20.20
2018-01-18T13:36:25.814Z,18.50
2018-01-18T13:38:53.533Z,17.80
2018-01-18T13:41:22.014Z,17.50
2018-01-18T13:43:49.826Z,17.50
2018-01-18T13:46:17.693Z,18.10
2018-01-18T13:48:45.421Z,18.00
2018-01-18T13:51:13.224Z,17.80
2018-01-18T13:53:41.090Z,17.50
2018-01-18T13:56:08.967Z,17.70
2018-01-18T13:58:36.825Z,18.00
2018-01-18T14:01:04.702Z,18.60
2018-01-18T14:03:32.582Z,18.30
2018-01-18T14:06:00.427Z,17.80
2018-01-18T14:08:28.295Z,17.50
2018-01-18T14:10:56.162Z,17.00
2018-01-18T14:13:24.029Z,16.20
2018-01-18T14:15:51.896Z,15.60
2018-01-18T14:18:19.764Z,15.70
2018-01-18T14:20:47.733Z,16.50
2018-01-18T14:23:15.600Z,16.70
2018-01-18T14:25:43.467Z,15.90
2018-01-18T14:28:11.335Z,14.90
2018-01-18T14:30:39.202Z,14.10
2018-01-18T14:33:07.069Z,13.70
2018-01-18T14:35:34.938Z,13.20
2018-01-18T14:38:02.804Z,12.80
2018-01-18T14:40:30.672Z,12.60
2018-01-18T14:42:58.540Z,12.30
2018-01-18T14:45:26.407Z,12.00
2018-01-18T14:47:54.274Z,11.70
2018-01-18T14:50:22.145Z,11.40
2018-01-18T14:52:50.009Z,11.20
2018-01-18T14:55:17.876Z,11.00
2018-01-18T14:57:45.743Z,10.80
2018-01-18T15:00:13.613Z,10.70
2018-01-18T15:02:41.477Z,10.50
2018-01-18T15:05:09.344Z,10.30
2018-01-18T15:07:37.214Z,10.20
2018-01-18T15:10:05.080Z,10.10
2018-01-18T15:12:32.950Z,9.90
2018-01-18T15:15:00.818Z,9.80
2018-01-18T15:17:28.682Z,9.70
2018-01-18T15:19:56.547Z,9.70
2018-01-18T15:22:24.415Z,9.60
2018-01-18T15:24:52.283Z,9.60
2018-01-18T15:27:20.151Z,9.50
2018-01-18T15:29:48.018Z,9.40
2018-01-18T15:32:15.887Z,9.30
2018-01-18T15:34:43.753Z,9.20
2018-01-18T15:37:11.619Z,9.20
2018-01-18T15:39:39.487Z,9.20
2018-01-18T15:42:07.355Z,9.10
2018-01-18T15:44:35.221Z,9.10
2018-01-18T15:47:03.090Z,9.00
2018-01-18T15:49:30.956Z,9.00
2018-01-18T15:51:58.824Z,8.90
2018-01-18T15:54:26.691Z,8.80
2018-01-18T15:56:54.563Z,8.80
2018-01-18T15:59:22.426Z,8.80
2018-01-18T16:01:50.293Z,8.70
2018-01-18T16:04:18.160Z,8.70
2018-01-18T16:06:46.029Z,8.60
2018-01-18T16:09:13.897Z,8.60
2018-01-18T16:11:41.764Z,8.50
2018-01-18T16:14:09.522Z,8.50
2018-01-18T16:16:37.259Z,8.40
2018-01-18T16:19:05.160Z,8.40
2018-01-18T16:21:33.026Z,8.30
2018-01-18T16:24:00.894Z,8.30
2018-01-18T16:26:28.765Z,8.30
2018-01-18T16:28:56.628Z,8.30
2018-01-18T16:31:24.600Z,8.20
2018-01-18T16:33:52.468Z,8.10
2018-01-18T16:36:20.333Z,8.00
2018-01-18T16:38:48.200Z,8.00
2018-01-18T16:41:16.068Z,7.90
2018-01-18T16:43:43.938Z,7.90
2018-01-18T16:46:12.622Z,7.80
2018-01-18T16:48:40.489Z,7.80
2018-01-18T16:51:08.601Z,7.80
2018-01-18T16:53:40.784Z,7.70
2018-01-18T16:56:08.903Z,7.70
2018-01-18T16:58:37.417Z,7.70
2018-01-18T17:01:08.128Z,7.60
2018-01-18T17:03:38.879Z,7.50
2018-01-18T17:07:27.517Z,7.30
2018-01-18T17:09:55.384Z,7.30
2018-01-18T17:12:23.250Z,7.20
2018-01-18T17:14:51.220Z,7.20
2018-01-18T17:17:19.088Z,7.10
2018-01-18T17:19:46.963Z,7.00
2018-01-18T17:22:14.822Z,7.00
2018-01-18T17:24:42.690Z,7.00
2018-01-18T17:27:10.556Z,7.00
2018-01-18T17:29:38.424Z,7.00
2018-01-18T17:32:06.291Z,6.90
2018-01-18T17:34:34.159Z,6.90
2018-01-18T17:37:02.026Z,6.90
2018-01-18T17:39:29.897Z,7.00
2018-01-18T17:41:57.770Z,6.90
2018-01-18T17:44:25.732Z,7.00
2018-01-18T17:46:53.598Z,7.00
2018-01-18T17:49:21.674Z,7.00
2018-01-18T17:51:49.537Z,7.00
2018-01-18T17:54:17.405Z,6.90
2018-01-18T17:56:45.276Z,6.90
2018-01-18T17:59:13.140Z,6.90
2018-01-18T18:01:41.036Z,6.80
2018-01-18T18:04:10.002Z,6.70
2018-01-18T18:06:37.868Z,6.70
2018-01-18T18:09:05.734Z,6.60
2018-01-18T18:11:33.602Z,6.40
2018-01-18T18:14:01.573Z,6.30
2018-01-18T18:16:29.542Z,6.20
2018-01-18T18:18:57.614Z,6.20
2018-01-18T18:21:25.804Z,6.10
2018-01-18T18:23:54.167Z,6.00
2018-01-18T18:26:22.046Z,6.00
2018-01-18T18:28:50.005Z,6.00
2018-01-18T18:31:17.872Z,6.10
2018-01-18T18:33:45.739Z,6.00
2018-01-18T18:36:13.607Z,6.00
2018-01-18T18:38:41.473Z,6.00
2018-01-18T18:41:09.341Z,6.00
2018-01-18T18:43:37.210Z,6.00
2018-01-18T18:46:05.091Z,6.00
2018-01-18T18:48:33.046Z,5.90
2018-01-18T18:51:01.016Z,5.80
2018-01-18T18:53:28.883Z,5.80
2018-01-18T18:55:56.752Z,5.80
2018-01-18T18:58:24.618Z,5.80
2018-01-18T19:00:52.487Z,5.80
2018-01-18T19:03:20.354Z,5.70
2018-01-18T19:05:48.220Z,5.60
2018-01-18T19:08:16.189Z,5.30
2018-01-18T19:10:44.059Z,5.10
2018-01-18T19:13:11.926Z,4.90
2018-01-18T19:15:39.791Z,4.60
2018-01-18T19:18:07.658Z,4.50
2018-01-18T19:20:35.525Z,4.30
2018-01-18T19:23:03.392Z,4.20
2018-01-18T19:25:31.261Z,4.10
2018-01-18T19:27:59.131Z,4.10
2018-01-18T19:30:26.994Z,4.10
2018-01-18T19:32:54.862Z,4.30
2018-01-18T19:35:22.729Z,4.40
2018-01-18T19:37:50.597Z,4.40
2018-01-18T19:40:18.463Z,4.50
2018-01-18T19:42:46.331Z,4.60
2018-01-18T19:45:14.197Z,4.70
2018-01-18T19:47:42.066Z,4.80
2018-01-18T19:50:10.035Z,4.80
2018-01-18T19:52:37.902Z,4.90
2018-01-18T19:55:05.773Z,4.90
2018-01-18T19:57:33.641Z,5.00
2018-01-18T20:00:01.505Z,5.10
2018-01-18T20:02:29.371Z,5.10
2018-01-18T20:04:57.238Z,5.10
2018-01-18T20:07:25.106Z,5.20
2018-01-18T20:09:53.283Z,5.20
2018-01-18T20:12:21.149Z,5.30
2018-01-18T20:14:49.019Z,5.30
2018-01-18T20:17:16.885Z,5.30
2018-01-18T20:19:44.749Z,5.40
2018-01-18T20:22:12.617Z,5.50
2018-01-18T20:24:40.485Z,5.60
2018-01-18T20:27:08.352Z,5.70
2018-01-18T20:29:36.219Z,5.80
2018-01-18T20:32:04.091Z,5.80
2018-01-18T20:34:31.953Z,5.90
2018-01-18T20:36:59.822Z,5.90
2018-01-18T20:39:27.688Z,5.90
2018-01-18T20:41:55.556Z,5.90
2018-01-18T20:44:23.423Z,5.90
2018-01-18T20:46:51.290Z,6.00
2018-01-18T20:49:19.157Z,6.00
2018-01-18T20:51:47.024Z,6.10
2018-01-18T20:54:15.505Z,6.10
2018-01-18T20:56:43.373Z,6.20
2018-01-18T20:59:11.242Z,6.20
2018-01-18T21:01:39.107Z,6.20
2018-01-18T21:04:06.901Z,6.20
2018-01-18T21:06:34.741Z,6.20
2018-01-18T21:09:02.607Z,6.20
2018-01-18T21:11:30.474Z,6.20
2018-01-18T21:13:58.342Z,6.10
2018-01-18T21:16:26.209Z,6.10
2018-01-18T21:18:54.076Z,6.10
2018-01-18T21:21:21.943Z,6.10
2018-01-18T21:23:49.812Z,6.10
2018-01-18T21:26:17.681Z,6.10
2018-01-18T21:28:45.546Z,6.10
2018-01-18T21:31:13.412Z,6.20
2018-01-18T21:33:41.280Z,6.20
2018-01-18T21:36:09.148Z,6.20
2018-01-18T21:38:37.015Z,6.30
2018-01-18T21:41:04.883Z,6.30
2018-01-18T21:43:32.749Z,6.20
2018-01-18T21:46:00.617Z,6.20
2018-01-18T21:48:28.486Z,6.20
2018-01-18T21:50:56.351Z,6.10
2018-01-18T21:53:24.219Z,6.10
2018-01-18T21:55:52.086Z,6.10
2018-01-18T21:58:19.953Z,6.10
2018-01-18T22:00:47.821Z,6.20
2018-01-18T22:03:15.690Z,6.20
2018-01-18T22:05:43.555Z,6.20
2018-01-18T22:08:11.422Z,6.20
2018-01-18T22:10:39.290Z,6.20
2018-01-18T22:13:07.156Z,6.30
2018-01-18T22:15:35.025Z,6.30
2018-01-18T22:18:02.893Z,6.30
2018-01-18T22:20:30.688Z,6.30
2018-01-18T22:22:58.523Z,6.30
2018-01-18T22:25:26.391Z,6.20
2018-01-18T22:27:54.156Z,6.20
2018-01-18T22:30:22.023Z,6.20
2018-01-18T22:32:49.894Z,6.30
2018-01-18T22:35:17.758Z,6.30
2018-01-18T22:37:45.626Z,6.30
2018-01-18T22:40:13.493Z,6.30
2018-01-18T22:42:41.360Z,6.30
2018-01-18T22:45:09.227Z,6.30
2018-01-18T22:47:37.095Z,6.20
2018-01-18T22:50:04.962Z,6.20
2018-01-18T22:52:32.753Z,6.20
2018-01-18T22:55:01.313Z,6.30
2018-01-18T22:57:29.178Z,6.20
2018-01-18T22:59:56.982Z,6.20
2018-01-18T23:02:25.630Z,6.30
2018-01-18T23:04:53.497Z,6.20
2018-01-18T23:07:21.364Z,6.20
2018-01-18T23:09:49.233Z,6.30
2018-01-18T23:12:17.099Z,6.30
2018-01-18T23:14:44.966Z,6.30
2018-01-18T23:17:12.834Z,6.30
2018-01-18T23:19:40.701Z,6.30
2018-01-18T23:22:08.569Z,6.30
2018-01-18T23:24:36.439Z,6.20
2018-01-18T23:27:04.304Z,6.20
2018-01-18T23:29:32.171Z,6.10
2018-01-18T23:32:00.039Z,6.10
2018-01-18T23:34:27.906Z,6.10
2018-01-18T23:36:55.788Z,6.10
2018-01-18T23:39:23.639Z,6.00
2018-01-18T23:41:51.507Z,6.00
2018-01-18T23:44:19.377Z,6.00
2018-01-18T23:46:47.241Z,6.00
2018-01-18T23:49:15.109Z,6.00
2018-01-18T23:51:42.976Z,6.00
2018-01-18T23:54:10.844Z,5.90
2018-01-18T23:56:38.713Z,6.00
2018-01-18T23:59:06.577Z,6.00
